sensor_id;sensor_type;location;lat;lon;timestamp;P1;durP1;ratioP1;P2;durP2;ratioP2
63818;SDS011;49970;54.976;73.248;2022-07-29T00:01:26;15.10;;;11.20;;
63818;SDS011;49970;54.976;73.248;2022-07-29T00:03:53;11.07;;;9.88;;
63818;SDS011;49970;54.976;73.248;2022-07-29T00:06:19;10.63;;;9.13;;
63818;SDS011;49970;54.976;73.248;2022-07-29T00:08:46;11.10;;;9.45;;
63818;SDS011;49970;54.976;73.248;2022-07-29T00:11:15;11.30;;;9.85;;
63818;SDS011;49970;54.976;73.248;2022-07-29T00:13:41;9.35;;;8.38;;
63818;SDS011;49970;54.976;73.248;2022-07-29T00:16:08;9.88;;;8.52;;
63818;SDS011;49970;54.976;73.248;2022-07-29T00:18:44;11.13;;;8.18;;
63818;SDS011;49970;54.976;73.248;2022-07-29T00:21:10;8.07;;;7.28;;
63818;SDS011;49970;54.976;73.248;2022-07-29T00:23:37;8.25;;;6.50;;
63818;SDS011;49970;54.976;73.248;2022-07-29T00:26:03;8.10;;;7.38;;
63818;SDS011;49970;54.976;73.248;2022-07-29T00:28:34;7.68;;;7.07;;
63818;SDS011;49970;54.976;73.248;2022-07-29T00:31:00;7.72;;;7.03;;
63818;SDS011;49970;54.976;73.248;2022-07-29T00:33:37;8.15;;;7.45;;
63818;SDS011;49970;54.976;73.248;2022-07-29T00:36:03;7.75;;;5.90;;
63818;SDS011;49970;54.976;73.248;2022-07-29T00:38:30;7.93;;;7.13;;
63818;SDS011;49970;54.976;73.248;2022-07-29T00:41:01;10.40;;;6.43;;
63818;SDS011;49970;54.976;73.248;2022-07-29T00:43:27;5.50;;;5.07;;
63818;SDS011;49970;54.976;73.248;2022-07-29T00:45:53;6.78;;;4.95;;
63818;SDS011;49970;54.976;73.248;2022-07-29T00:48:29;4.32;;;4.13;;
63818;SDS011;49970;54.976;73.248;2022-07-29T00:50:57;5.78;;;4.47;;
63818;SDS011;49970;54.976;73.248;2022-07-29T00:53:24;5.60;;;4.18;;
63818;SDS011;49970;54.976;73.248;2022-07-29T00:55:56;5.77;;;3.63;;
63818;SDS011;49970;54.976;73.248;2022-07-29T00:58:24;5.25;;;3.42;;
63818;SDS011;49970;54.976;73.248;2022-07-29T01:00:52;3.90;;;3.60;;
63818;SDS011;49970;54.976;73.248;2022-07-29T01:03:19;4.50;;;4.20;;
63818;SDS011;49970;54.976;73.248;2022-07-29T01:05:55;3.80;;;3.50;;
63818;SDS011;49970;54.976;73.248;2022-07-29T01:08:22;3.67;;;3.47;;
63818;SDS011;49970;54.976;73.248;2022-07-29T01:10:49;4.85;;;3.47;;
63818;SDS011;49970;54.976;73.248;2022-07-29T01:13:16;13.15;;;3.58;;
63818;SDS011;49970;54.976;73.248;2022-07-29T01:15:44;3.30;;;3.10;;
63818;SDS011;49970;54.976;73.248;2022-07-29T01:18:32;5.05;;;3.10;;
63818;SDS011;49970;54.976;73.248;2022-07-29T01:24:29;4.65;;;3.65;;
63818;SDS011;49970;54.976;73.248;2022-07-29T01:26:55;5.22;;;4.10;;
63818;SDS011;49970;54.976;73.248;2022-07-29T01:29:49;13.68;;;7.38;;
63818;SDS011;49970;54.976;73.248;2022-07-29T01:32:24;12.93;;;4.95;;
63818;SDS011;49970;54.976;73.248;2022-07-29T01:37:30;5.10;;;3.80;;
63818;SDS011;49970;54.976;73.248;2022-07-29T01:40:23;4.43;;;4.10;;
63818;SDS011;49970;54.976;73.248;2022-07-29T01:42:57;4.32;;;3.92;;
63818;SDS011;49970;54.976;73.248;2022-07-29T01:48:18;5.22;;;4.82;;
63818;SDS011;49970;54.976;73.248;2022-07-29T01:51:31;14.68;;;6.65;;
63818;SDS011;49970;54.976;73.248;2022-07-29T01:54:04;10.77;;;5.50;;
63818;SDS011;49970;54.976;73.248;2022-07-29T01:56:47;6.93;;;6.22;;
63818;SDS011;49970;54.976;73.248;2022-07-29T01:59:16;9.50;;;5.60;;
63818;SDS011;49970;54.976;73.248;2022-07-29T02:01:53;14.35;;;6.78;;
63818;SDS011;49970;54.976;73.248;2022-07-29T02:04:32;6.25;;;5.80;;
63818;SDS011;49970;54.976;73.248;2022-07-29T02:07:03;18.33;;;6.47;;
63818;SDS011;49970;54.976;73.248;2022-07-29T02:09:33;19.50;;;7.80;;
63818;SDS011;49970;54.976;73.248;2022-07-29T02:12:02;21.30;;;8.48;;
63818;SDS011;49970;54.976;73.248;2022-07-29T02:14:31;35.05;;;11.77;;
63818;SDS011;49970;54.976;73.248;2022-07-29T02:17:03;14.05;;;10.73;;
63818;SDS011;49970;54.976;73.248;2022-07-29T02:19:40;25.52;;;9.60;;
63818;SDS011;49970;54.976;73.248;2022-07-29T02:22:09;15.20;;;10.70;;
63818;SDS011;49970;54.976;73.248;2022-07-29T02:24:38;28.05;;;10.90;;
63818;SDS011;49970;54.976;73.248;2022-07-29T02:27:06;50.70;;;14.05;;
63818;SDS011;49970;54.976;73.248;2022-07-29T02:29:35;30.65;;;11.88;;
63818;SDS011;49970;54.976;73.248;2022-07-29T02:32:03;26.02;;;14.18;;
63818;SDS011;49970;54.976;73.248;2022-07-29T02:34:30;24.60;;;13.82;;
63818;SDS011;49970;54.976;73.248;2022-07-29T02:37:04;49.08;;;12.52;;
63818;SDS011;49970;54.976;73.248;2022-07-29T02:39:31;20.05;;;10.38;;
63818;SDS011;49970;54.976;73.248;2022-07-29T02:41:59;14.75;;;10.05;;
63818;SDS011;49970;54.976;73.248;2022-07-29T02:44:33;20.58;;;11.27;;
63818;SDS011;49970;54.976;73.248;2022-07-29T02:49:51;23.65;;;9.85;;
63818;SDS011;49970;54.976;73.248;2022-07-29T02:52:24;17.38;;;11.50;;
63818;SDS011;49970;54.976;73.248;2022-07-29T02:54:56;21.92;;;11.50;;
63818;SDS011;49970;54.976;73.248;2022-07-29T02:57:30;14.43;;;10.18;;
63818;SDS011;49970;54.976;73.248;2022-07-29T03:00:06;20.50;;;10.02;;
63818;SDS011;49970;54.976;73.248;2022-07-29T03:02:38;15.20;;;8.20;;
63818;SDS011;49970;54.976;73.248;2022-07-29T03:05:09;9.85;;;8.82;;
63818;SDS011;49970;54.976;73.248;2022-07-29T03:07:54;10.85;;;8.77;;
63818;SDS011;49970;54.976;73.248;2022-07-29T03:10:24;18.25;;;7.47;;
63818;SDS011;49970;54.976;73.248;2022-07-29T03:12:51;18.23;;;7.35;;
63818;SDS011;49970;54.976;73.248;2022-07-29T03:15:24;9.85;;;7.00;;
63818;SDS011;49970;54.976;73.248;2022-07-29T03:17:52;19.95;;;6.38;;
63818;SDS011;49970;54.976;73.248;2022-07-29T03:20:19;7.43;;;6.72;;
63818;SDS011;49970;54.976;73.248;2022-07-29T03:22:46;7.05;;;6.35;;
63818;SDS011;49970;54.976;73.248;2022-07-29T03:25:16;18.23;;;6.32;;
63818;SDS011;49970;54.976;73.248;2022-07-29T03:27:48;9.10;;;6.60;;
63818;SDS011;49970;54.976;73.248;2022-07-29T03:30:15;7.13;;;6.38;;
63818;SDS011;49970;54.976;73.248;2022-07-29T03:34:06;14.15;;;8.18;;
63818;SDS011;49970;54.976;73.248;2022-07-29T03:37:57;10.68;;;7.00;;
63818;SDS011;49970;54.976;73.248;2022-07-29T03:41:49;6.15;;;4.82;;
63818;SDS011;49970;54.976;73.248;2022-07-29T03:44:23;5.82;;;5.28;;
63818;SDS011;49970;54.976;73.248;2022-07-29T03:46:57;8.55;;;5.47;;
63818;SDS011;49970;54.976;73.248;2022-07-29T03:49:27;7.63;;;5.20;;
63818;SDS011;49970;54.976;73.248;2022-07-29T03:52:00;6.90;;;5.15;;
63818;SDS011;49970;54.976;73.248;2022-07-29T03:54:26;5.43;;;4.60;;
63818;SDS011;49970;54.976;73.248;2022-07-29T03:56:53;4.97;;;4.30;;
63818;SDS011;49970;54.976;73.248;2022-07-29T03:59:21;9.18;;;4.05;;
63818;SDS011;49970;54.976;73.248;2022-07-29T04:01:48;5.00;;;4.00;;
63818;SDS011;49970;54.976;73.248;2022-07-29T04:04:15;5.47;;;3.83;;
63818;SDS011;49970;54.976;73.248;2022-07-29T04:06:42;5.70;;;3.28;;
63818;SDS011;49970;54.976;73.248;2022-07-29T04:09:10;5.30;;;3.38;;
63818;SDS011;49970;54.976;73.248;2022-07-29T04:11:40;8.00;;;4.03;;
63818;SDS011;49970;54.976;73.248;2022-07-29T04:14:18;3.38;;;3.08;;
63818;SDS011;49970;54.976;73.248;2022-07-29T04:16:44;3.60;;;3.30;;
63818;SDS011;49970;54.976;73.248;2022-07-29T04:19:10;13.98;;;3.83;;
63818;SDS011;49970;54.976;73.248;2022-07-29T04:21:40;5.70;;;5.10;;
63818;SDS011;49970;54.976;73.248;2022-07-29T04:24:07;9.30;;;5.05;;
63818;SDS011;49970;54.976;73.248;2022-07-29T04:26:34;11.45;;;5.38;;
63818;SDS011;49970;54.976;73.248;2022-07-29T04:29:00;7.97;;;6.95;;
63818;SDS011;49970;54.976;73.248;2022-07-29T04:31:26;9.63;;;7.28;;
63818;SDS011;49970;54.976;73.248;2022-07-29T04:33:53;12.50;;;9.07;;
63818;SDS011;49970;54.976;73.248;2022-07-29T04:36:19;17.23;;;11.35;;
63818;SDS011;49970;54.976;73.248;2022-07-29T04:38:45;19.75;;;12.63;;
63818;SDS011;49970;54.976;73.248;2022-07-29T04:46:37;19.58;;;14.90;;
63818;SDS011;49970;54.976;73.248;2022-07-29T04:49:04;24.80;;;16.13;;
63818;SDS011;49970;54.976;73.248;2022-07-29T04:51:40;23.77;;;14.68;;
63818;SDS011;49970;54.976;73.248;2022-07-29T04:54:07;25.00;;;14.50;;
63818;SDS011;49970;54.976;73.248;2022-07-29T04:56:38;30.25;;;14.85;;
63818;SDS011;49970;54.976;73.248;2022-07-29T04:59:04;21.50;;;15.25;;
63818;SDS011;49970;54.976;73.248;2022-07-29T05:01:31;23.42;;;15.98;;
63818;SDS011;49970;54.976;73.248;2022-07-29T05:03:57;18.90;;;13.65;;
63818;SDS011;49970;54.976;73.248;2022-07-29T05:06:23;31.50;;;14.80;;
63818;SDS011;49970;54.976;73.248;2022-07-29T05:08:59;18.55;;;14.85;;
63818;SDS011;49970;54.976;73.248;2022-07-29T05:11:37;28.08;;;14.32;;
63818;SDS011;49970;54.976;73.248;2022-07-29T05:14:03;20.38;;;13.90;;
63818;SDS011;49970;54.976;73.248;2022-07-29T05:16:29;17.27;;;14.93;;
63818;SDS011;49970;54.976;73.248;2022-07-29T05:18:55;19.48;;;15.15;;
63818;SDS011;49970;54.976;73.248;2022-07-29T05:22:46;20.63;;;14.65;;
63818;SDS011;49970;54.976;73.248;2022-07-29T05:26:38;21.52;;;13.43;;
63818;SDS011;49970;54.976;73.248;2022-07-29T05:30:28;19.98;;;14.57;;
63818;SDS011;49970;54.976;73.248;2022-07-29T05:34:22;16.40;;;12.55;;
63818;SDS011;49970;54.976;73.248;2022-07-29T05:38:13;18.38;;;11.63;;
63818;SDS011;49970;54.976;73.248;2022-07-29T05:42:07;14.95;;;12.38;;
63818;SDS011;49970;54.976;73.248;2022-07-29T05:45:53;23.38;;;12.10;;
63818;SDS011;49970;54.976;73.248;2022-07-29T05:49:44;24.08;;;10.30;;
63818;SDS011;49970;54.976;73.248;2022-07-29T05:53:33;13.68;;;10.75;;
63818;SDS011;49970;54.976;73.248;2022-07-29T05:57:23;12.10;;;10.45;;
63818;SDS011;49970;54.976;73.248;2022-07-29T06:01:12;16.65;;;10.52;;
63818;SDS011;49970;54.976;73.248;2022-07-29T06:05:02;25.70;;;9.73;;
63818;SDS011;49970;54.976;73.248;2022-07-29T06:08:53;15.52;;;9.63;;
63818;SDS011;49970;54.976;73.248;2022-07-29T06:16:57;14.27;;;9.90;;
63818;SDS011;49970;54.976;73.248;2022-07-29T06:25:01;17.73;;;9.90;;
63818;SDS011;49970;54.976;73.248;2022-07-29T06:27:29;21.33;;;9.70;;
63818;SDS011;49970;54.976;73.248;2022-07-29T06:29:55;12.23;;;8.75;;
63818;SDS011;49970;54.976;73.248;2022-07-29T06:32:22;18.60;;;9.30;;
63818;SDS011;49970;54.976;73.248;2022-07-29T06:35:00;19.83;;;9.60;;
63818;SDS011;49970;54.976;73.248;2022-07-29T06:37:30;15.88;;;9.20;;
63818;SDS011;49970;54.976;73.248;2022-07-29T06:39:56;12.10;;;9.50;;
63818;SDS011;49970;54.976;73.248;2022-07-29T06:42:42;14.50;;;8.80;;
63818;SDS011;49970;54.976;73.248;2022-07-29T06:45:10;31.42;;;9.13;;
63818;SDS011;49970;54.976;73.248;2022-07-29T06:47:42;15.32;;;8.43;;
63818;SDS011;49970;54.976;73.248;2022-07-29T06:50:16;11.70;;;8.57;;
63818;SDS011;49970;54.976;73.248;2022-07-29T06:53:02;11.68;;;8.80;;
63818;SDS011;49970;54.976;73.248;2022-07-29T06:55:39;20.50;;;9.25;;
63818;SDS011;49970;54.976;73.248;2022-07-29T06:58:10;34.72;;;8.43;;
63818;SDS011;49970;54.976;73.248;2022-07-29T07:02:27;15.25;;;8.63;;
63818;SDS011;49970;54.976;73.248;2022-07-29T07:06:18;16.70;;;8.00;;
63818;SDS011;49970;54.976;73.248;2022-07-29T07:08:44;33.45;;;9.45;;
63818;SDS011;49970;54.976;73.248;2022-07-29T07:11:11;30.17;;;8.68;;
63818;SDS011;49970;54.976;73.248;2022-07-29T07:13:41;12.57;;;8.80;;
63818;SDS011;49970;54.976;73.248;2022-07-29T07:16:07;24.75;;;8.73;;
63818;SDS011;49970;54.976;73.248;2022-07-29T07:18:34;11.00;;;8.48;;
63818;SDS011;49970;54.976;73.248;2022-07-29T07:21:00;14.90;;;8.93;;
63818;SDS011;49970;54.976;73.248;2022-07-29T07:23:26;18.98;;;8.13;;
63818;SDS011;49970;54.976;73.248;2022-07-29T07:25:52;10.43;;;8.23;;
63818;SDS011;49970;54.976;73.248;2022-07-29T07:28:19;9.95;;;7.88;;
63818;SDS011;49970;54.976;73.248;2022-07-29T07:30:45;12.18;;;7.82;;
63818;SDS011;49970;54.976;73.248;2022-07-29T07:33:12;23.60;;;8.00;;
63818;SDS011;49970;54.976;73.248;2022-07-29T07:35:58;19.65;;;8.70;;
63818;SDS011;49970;54.976;73.248;2022-07-29T07:39:48;17.98;;;7.97;;
63818;SDS011;49970;54.976;73.248;2022-07-29T07:42:14;17.98;;;7.88;;
63818;SDS011;49970;54.976;73.248;2022-07-29T07:44:40;21.08;;;8.18;;
63818;SDS011;49970;54.976;73.248;2022-07-29T07:47:07;18.65;;;8.50;;
63818;SDS011;49970;54.976;73.248;2022-07-29T07:49:33;21.33;;;9.77;;
63818;SDS011;49970;54.976;73.248;2022-07-29T07:52:00;18.60;;;10.07;;
63818;SDS011;49970;54.976;73.248;2022-07-29T07:54:37;25.95;;;15.65;;
63818;SDS011;49970;54.976;73.248;2022-07-29T07:57:13;29.05;;;12.48;;
63818;SDS011;49970;54.976;73.248;2022-07-29T07:59:50;20.95;;;8.75;;
63818;SDS011;49970;54.976;73.248;2022-07-29T08:02:16;12.15;;;7.90;;
63818;SDS011;49970;54.976;73.248;2022-07-29T08:04:53;13.80;;;7.10;;
63818;SDS011;49970;54.976;73.248;2022-07-29T08:07:20;10.18;;;8.00;;
63818;SDS011;49970;54.976;73.248;2022-07-29T08:09:46;16.45;;;9.13;;
63818;SDS011;49970;54.976;73.248;2022-07-29T08:12:13;17.98;;;8.02;;
63818;SDS011;49970;54.976;73.248;2022-07-29T08:14:39;14.40;;;7.43;;
63818;SDS011;49970;54.976;73.248;2022-07-29T08:17:05;13.77;;;7.35;;
63818;SDS011;49970;54.976;73.248;2022-07-29T08:19:31;12.20;;;7.28;;
63818;SDS011;49970;54.976;73.248;2022-07-29T08:22:07;13.65;;;8.00;;
63818;SDS011;49970;54.976;73.248;2022-07-29T08:24:34;14.32;;;7.80;;
63818;SDS011;49970;54.976;73.248;2022-07-29T08:27:10;18.83;;;6.88;;
63818;SDS011;49970;54.976;73.248;2022-07-29T08:29:37;12.73;;;6.95;;
63818;SDS011;49970;54.976;73.248;2022-07-29T08:32:14;19.27;;;7.07;;
63818;SDS011;49970;54.976;73.248;2022-07-29T08:34:45;15.27;;;7.00;;
63818;SDS011;49970;54.976;73.248;2022-07-29T08:37:11;9.55;;;6.20;;
63818;SDS011;49970;54.976;73.248;2022-07-29T08:39:38;18.35;;;6.25;;
63818;SDS011;49970;54.976;73.248;2022-07-29T08:42:12;21.33;;;6.68;;
63818;SDS011;49970;54.976;73.248;2022-07-29T08:44:39;18.55;;;6.90;;
63818;SDS011;49970;54.976;73.248;2022-07-29T08:47:06;9.85;;;6.35;;
63818;SDS011;49970;54.976;73.248;2022-07-29T08:49:33;13.15;;;6.88;;
63818;SDS011;49970;54.976;73.248;2022-07-29T08:52:00;19.08;;;5.90;;
63818;SDS011;49970;54.976;73.248;2022-07-29T08:54:26;7.50;;;6.00;;
63818;SDS011;49970;54.976;73.248;2022-07-29T08:57:56;12.18;;;6.65;;
63818;SDS011;49970;54.976;73.248;2022-07-29T09:00:29;8.07;;;6.15;;
63818;SDS011;49970;54.976;73.248;2022-07-29T09:02:56;13.82;;;6.50;;
63818;SDS011;49970;54.976;73.248;2022-07-29T09:05:29;10.75;;;6.22;;
63818;SDS011;49970;54.976;73.248;2022-07-29T09:07:58;10.25;;;6.45;;
63818;SDS011;49970;54.976;73.248;2022-07-29T09:11:24;11.70;;;7.15;;
63818;SDS011;49970;54.976;73.248;2022-07-29T09:14:28;7.72;;;6.95;;
63818;SDS011;49970;54.976;73.248;2022-07-29T09:22:28;19.55;;;7.68;;
63818;SDS011;49970;54.976;73.248;2022-07-29T09:26:10;10.68;;;6.35;;
63818;SDS011;49970;54.976;73.248;2022-07-29T09:30:06;17.58;;;7.35;;
63818;SDS011;49970;54.976;73.248;2022-07-29T09:33:36;10.10;;;7.18;;
63818;SDS011;49970;54.976;73.248;2022-07-29T09:37:30;15.35;;;8.02;;
63818;SDS011;49970;54.976;73.248;2022-07-29T09:41:18;14.38;;;7.18;;
63818;SDS011;49970;54.976;73.248;2022-07-29T09:45:07;20.00;;;7.55;;
63818;SDS011;49970;54.976;73.248;2022-07-29T09:49:23;10.50;;;6.35;;
63818;SDS011;49970;54.976;73.248;2022-07-29T09:53:35;10.05;;;7.10;;
63818;SDS011;49970;54.976;73.248;2022-07-29T09:56:03;17.75;;;7.43;;
63818;SDS011;49970;54.976;73.248;2022-07-29T09:58:30;14.02;;;6.90;;
63818;SDS011;49970;54.976;73.248;2022-07-29T10:02:22;12.32;;;6.45;;
63818;SDS011;49970;54.976;73.248;2022-07-29T10:06:13;18.20;;;6.68;;
63818;SDS011;49970;54.976;73.248;2022-07-29T10:08:54;18.75;;;7.20;;
63818;SDS011;49970;54.976;73.248;2022-07-29T10:16:24;14.35;;;6.55;;
63818;SDS011;49970;54.976;73.248;2022-07-29T10:20:13;19.85;;;7.90;;
63818;SDS011;49970;54.976;73.248;2022-07-29T10:24:04;14.02;;;6.65;;
63818;SDS011;49970;54.976;73.248;2022-07-29T10:27:55;22.75;;;6.45;;
63818;SDS011;49970;54.976;73.248;2022-07-29T10:31:04;19.80;;;7.43;;
63818;SDS011;49970;54.976;73.248;2022-07-29T10:33:45;7.90;;;6.07;;
63818;SDS011;49970;54.976;73.248;2022-07-29T10:47:23;16.55;;;7.43;;
63818;SDS011;49970;54.976;73.248;2022-07-29T10:50:01;8.20;;;6.90;;
63818;SDS011;49970;54.976;73.248;2022-07-29T10:56:00;10.38;;;7.32;;
63818;SDS011;49970;54.976;73.248;2022-07-29T11:03:57;9.32;;;6.72;;
63818;SDS011;49970;54.976;73.248;2022-07-29T11:15:19;12.85;;;6.68;;
63818;SDS011;49970;54.976;73.248;2022-07-29T11:18:20;18.38;;;6.95;;
63818;SDS011;49970;54.976;73.248;2022-07-29T11:20:50;10.70;;;7.00;;
63818;SDS011;49970;54.976;73.248;2022-07-29T11:23:26;9.25;;;7.00;;
63818;SDS011;49970;54.976;73.248;2022-07-29T11:31:33;7.00;;;6.40;;
63818;SDS011;49970;54.976;73.248;2022-07-29T11:34:22;13.20;;;6.72;;
63818;SDS011;49970;54.976;73.248;2022-07-29T11:41:32;12.60;;;7.40;;
63818;SDS011;49970;54.976;73.248;2022-07-29T11:45:21;16.27;;;7.50;;
63818;SDS011;49970;54.976;73.248;2022-07-29T11:50:07;18.27;;;6.82;;
63818;SDS011;49970;54.976;73.248;2022-07-29T11:53:37;10.93;;;6.72;;
63818;SDS011;49970;54.976;73.248;2022-07-29T11:56:33;19.75;;;6.00;;
63818;SDS011;49970;54.976;73.248;2022-07-29T11:59:05;10.00;;;6.10;;
63818;SDS011;49970;54.976;73.248;2022-07-29T12:01:36;12.45;;;6.50;;
63818;SDS011;49970;54.976;73.248;2022-07-29T12:04:06;9.07;;;6.28;;
63818;SDS011;49970;54.976;73.248;2022-07-29T12:06:36;14.32;;;6.30;;
63818;SDS011;49970;54.976;73.248;2022-07-29T12:09:07;16.88;;;6.50;;
63818;SDS011;49970;54.976;73.248;2022-07-29T12:11:37;11.20;;;6.05;;
63818;SDS011;49970;54.976;73.248;2022-07-29T12:14:27;13.73;;;5.63;;
63818;SDS011;49970;54.976;73.248;2022-07-29T12:17:04;15.18;;;7.43;;
63818;SDS011;49970;54.976;73.248;2022-07-29T12:19:30;13.27;;;5.82;;
63818;SDS011;49970;54.976;73.248;2022-07-29T12:22:09;10.40;;;5.00;;
63818;SDS011;49970;54.976;73.248;2022-07-29T12:26:05;8.95;;;5.40;;
63818;SDS011;49970;54.976;73.248;2022-07-29T12:29:57;9.55;;;5.35;;
63818;SDS011;49970;54.976;73.248;2022-07-29T12:33:51;16.77;;;5.50;;
63818;SDS011;49970;54.976;73.248;2022-07-29T12:37:42;21.52;;;5.60;;
63818;SDS011;49970;54.976;73.248;2022-07-29T12:41:33;11.57;;;4.93;;
63818;SDS011;49970;54.976;73.248;2022-07-29T12:48:35;8.52;;;5.07;;
63818;SDS011;49970;54.976;73.248;2022-07-29T12:52:28;11.93;;;5.35;;
63818;SDS011;49970;54.976;73.248;2022-07-29T12:56:18;10.73;;;5.03;;
63818;SDS011;49970;54.976;73.248;2022-07-29T13:00:10;8.25;;;5.10;;
63818;SDS011;49970;54.976;73.248;2022-07-29T13:04:00;14.82;;;5.32;;
63818;SDS011;49970;54.976;73.248;2022-07-29T13:06:30;10.10;;;4.65;;
63818;SDS011;49970;54.976;73.248;2022-07-29T13:11:50;16.35;;;5.47;;
63818;SDS011;49970;54.976;73.248;2022-07-29T13:14:41;5.72;;;4.85;;
63818;SDS011;49970;54.976;73.248;2022-07-29T13:19:50;16.35;;;4.68;;
63818;SDS011;49970;54.976;73.248;2022-07-29T13:22:18;11.02;;;4.55;;
63818;SDS011;49970;54.976;73.248;2022-07-29T13:27:21;12.23;;;4.13;;
63818;SDS011;49970;54.976;73.248;2022-07-29T13:29:51;13.05;;;4.13;;
63818;SDS011;49970;54.976;73.248;2022-07-29T13:32:28;10.27;;;4.35;;
63818;SDS011;49970;54.976;73.248;2022-07-29T13:34:55;7.95;;;3.88;;
63818;SDS011;49970;54.976;73.248;2022-07-29T13:37:33;9.85;;;3.47;;
63818;SDS011;49970;54.976;73.248;2022-07-29T13:40:03;9.10;;;3.97;;
63818;SDS011;49970;54.976;73.248;2022-07-29T13:42:31;5.78;;;3.45;;
63818;SDS011;49970;54.976;73.248;2022-07-29T13:44:58;17.40;;;4.22;;
63818;SDS011;49970;54.976;73.248;2022-07-29T13:47:26;6.38;;;3.70;;
63818;SDS011;49970;54.976;73.248;2022-07-29T13:49:54;7.22;;;3.35;;
63818;SDS011;49970;54.976;73.248;2022-07-29T13:52:20;8.07;;;4.18;;
63818;SDS011;49970;54.976;73.248;2022-07-29T13:54:47;15.55;;;4.13;;
63818;SDS011;49970;54.976;73.248;2022-07-29T13:57:16;9.43;;;3.30;;
63818;SDS011;49970;54.976;73.248;2022-07-29T13:59:43;15.68;;;4.00;;
63818;SDS011;49970;54.976;73.248;2022-07-29T14:02:10;16.67;;;5.15;;
63818;SDS011;49970;54.976;73.248;2022-07-29T14:04:37;7.70;;;4.15;;
63818;SDS011;49970;54.976;73.248;2022-07-29T14:07:05;6.10;;;3.70;;
63818;SDS011;49970;54.976;73.248;2022-07-29T14:09:33;14.00;;;3.80;;
63818;SDS011;49970;54.976;73.248;2022-07-29T14:12:01;3.65;;;3.35;;
63818;SDS011;49970;54.976;73.248;2022-07-29T14:14:28;12.98;;;3.90;;
63818;SDS011;49970;54.976;73.248;2022-07-29T14:16:55;3.80;;;3.03;;
63818;SDS011;49970;54.976;73.248;2022-07-29T14:19:22;8.20;;;3.08;;
63818;SDS011;49970;54.976;73.248;2022-07-29T14:21:48;10.32;;;3.08;;
63818;SDS011;49970;54.976;73.248;2022-07-29T14:24:14;11.43;;;3.50;;
63818;SDS011;49970;54.976;73.248;2022-07-29T14:26:40;5.43;;;2.70;;
63818;SDS011;49970;54.976;73.248;2022-07-29T14:29:07;11.93;;;5.10;;
63818;SDS011;49970;54.976;73.248;2022-07-29T14:31:33;27.10;;;4.93;;
63818;SDS011;49970;54.976;73.248;2022-07-29T14:33:59;8.48;;;5.10;;
63818;SDS011;49970;54.976;73.248;2022-07-29T14:36:26;21.80;;;3.90;;
63818;SDS011;49970;54.976;73.248;2022-07-29T14:40:18;12.25;;;3.40;;
63818;SDS011;49970;54.976;73.248;2022-07-29T14:43:57;9.50;;;3.45;;
63818;SDS011;49970;54.976;73.248;2022-07-29T14:46:26;5.97;;;3.67;;
63818;SDS011;49970;54.976;73.248;2022-07-29T14:48:58;11.05;;;4.28;;
63818;SDS011;49970;54.976;73.248;2022-07-29T14:51:32;9.15;;;3.63;;
63818;SDS011;49970;54.976;73.248;2022-07-29T14:53:58;7.50;;;2.90;;
63818;SDS011;49970;54.976;73.248;2022-07-29T14:56:29;18.77;;;4.28;;
63818;SDS011;49970;54.976;73.248;2022-07-29T15:00:11;5.25;;;2.83;;
63818;SDS011;49970;54.976;73.248;2022-07-29T15:03:27;7.18;;;3.20;;
63818;SDS011;49970;54.976;73.248;2022-07-29T15:06:03;7.95;;;4.35;;
63818;SDS011;49970;54.976;73.248;2022-07-29T15:08:30;10.95;;;6.25;;
63818;SDS011;49970;54.976;73.248;2022-07-29T15:10:56;19.42;;;7.95;;
63818;SDS011;49970;54.976;73.248;2022-07-29T15:13:30;12.52;;;7.22;;
63818;SDS011;49970;54.976;73.248;2022-07-29T15:15:56;6.00;;;4.13;;
63818;SDS011;49970;54.976;73.248;2022-07-29T15:18:22;11.85;;;3.33;;
63818;SDS011;49970;54.976;73.248;2022-07-29T15:20:48;18.13;;;3.17;;
63818;SDS011;49970;54.976;73.248;2022-07-29T15:23:25;7.03;;;3.28;;
63818;SDS011;49970;54.976;73.248;2022-07-29T15:25:51;8.40;;;3.33;;
63818;SDS011;49970;54.976;73.248;2022-07-29T15:28:17;4.35;;;3.13;;
63818;SDS011;49970;54.976;73.248;2022-07-29T15:30:43;10.63;;;2.72;;
63818;SDS011;49970;54.976;73.248;2022-07-29T15:33:10;8.65;;;2.70;;
63818;SDS011;49970;54.976;73.248;2022-07-29T15:36:17;10.80;;;2.53;;
63818;SDS011;49970;54.976;73.248;2022-07-29T15:40:09;4.75;;;2.80;;
63818;SDS011;49970;54.976;73.248;2022-07-29T15:44:01;8.70;;;2.47;;
63818;SDS011;49970;54.976;73.248;2022-07-29T15:47:52;20.67;;;2.92;;
63818;SDS011;49970;54.976;73.248;2022-07-29T15:52:35;8.02;;;3.20;;
63818;SDS011;49970;54.976;73.248;2022-07-29T15:56:27;18.35;;;2.67;;
63818;SDS011;49970;54.976;73.248;2022-07-29T15:59:05;14.98;;;2.83;;
63818;SDS011;49970;54.976;73.248;2022-07-29T16:01:31;12.25;;;3.08;;
63818;SDS011;49970;54.976;73.248;2022-07-29T16:03:57;10.63;;;2.38;;
63818;SDS011;49970;54.976;73.248;2022-07-29T16:06:24;4.50;;;2.53;;
63818;SDS011;49970;54.976;73.248;2022-07-29T16:08:50;12.25;;;2.85;;
63818;SDS011;49970;54.976;73.248;2022-07-29T16:11:16;15.57;;;2.95;;
63818;SDS011;49970;54.976;73.248;2022-07-29T16:13:42;10.15;;;2.83;;
63818;SDS011;49970;54.976;73.248;2022-07-29T16:17:32;12.32;;;3.10;;
63818;SDS011;49970;54.976;73.248;2022-07-29T16:21:22;7.13;;;2.85;;
63818;SDS011;49970;54.976;73.248;2022-07-29T16:25:14;8.32;;;2.70;;
63818;SDS011;49970;54.976;73.248;2022-07-29T16:29:05;17.40;;;3.00;;
63818;SDS011;49970;54.976;73.248;2022-07-29T16:32:56;11.38;;;3.13;;
63818;SDS011;49970;54.976;73.248;2022-07-29T16:36:46;10.77;;;2.50;;
63818;SDS011;49970;54.976;73.248;2022-07-29T16:40:37;6.85;;;3.25;;
63818;SDS011;49970;54.976;73.248;2022-07-29T16:44:29;11.90;;;3.03;;
63818;SDS011;49970;54.976;73.248;2022-07-29T16:48:20;15.60;;;3.25;;
63818;SDS011;49970;54.976;73.248;2022-07-29T16:52:11;11.73;;;2.72;;
63818;SDS011;49970;54.976;73.248;2022-07-29T16:56:02;17.35;;;2.72;;
63818;SDS011;49970;54.976;73.248;2022-07-29T16:59:53;10.00;;;2.45;;
63818;SDS011;49970;54.976;73.248;2022-07-29T17:03:44;12.38;;;4.05;;
63818;SDS011;49970;54.976;73.248;2022-07-29T17:07:35;6.97;;;2.53;;
63818;SDS011;49970;54.976;73.248;2022-07-29T17:11:25;6.18;;;2.72;;
63818;SDS011;49970;54.976;73.248;2022-07-29T17:15:16;9.00;;;2.78;;
63818;SDS011;49970;54.976;73.248;2022-07-29T17:19:08;12.98;;;2.55;;
63818;SDS011;49970;54.976;73.248;2022-07-29T17:22:59;2.80;;;2.60;;
63818;SDS011;49970;54.976;73.248;2022-07-29T17:26:50;7.47;;;3.35;;
63818;SDS011;49970;54.976;73.248;2022-07-29T17:30:41;7.75;;;2.53;;
63818;SDS011;49970;54.976;73.248;2022-07-29T18:10:48;6.85;;;1.80;;
63818;SDS011;49970;54.976;73.248;2022-07-29T18:13:18;3.08;;;2.20;;
63818;SDS011;49970;54.976;73.248;2022-07-29T18:15:49;16.27;;;2.42;;
63818;SDS011;49970;54.976;73.248;2022-07-29T18:18:19;7.47;;;2.42;;
63818;SDS011;49970;54.976;73.248;2022-07-29T18:20:48;3.45;;;2.13;;
63818;SDS011;49970;54.976;73.248;2022-07-29T18:25:49;4.28;;;2.30;;
63818;SDS011;49970;54.976;73.248;2022-07-29T18:28:20;4.32;;;1.95;;
63818;SDS011;49970;54.976;73.248;2022-07-29T18:30:49;2.00;;;1.80;;
63818;SDS011;49970;54.976;73.248;2022-07-29T18:33:19;4.88;;;2.00;;
63818;SDS011;49970;54.976;73.248;2022-07-29T18:36:01;9.45;;;1.98;;